Sumifukumaru No.5 — JD3058 — position and weather

sailwx.info

Track history (hours):
 
Tides and Currents Weather Stations Pressure Air Temp Water Temp Dewpoint Dewpoint Depression Visibility Wind Speed Wind Dir Waves Ship Positions

Sumifukumaru No.5

Last reported at 2015-Mar-30 21:09 UTC. Time now 2015-Mar-31 03:21 UTC.
Position N 35°57' E 140°44'.

Length 75 m; draft 4.4 m.

Type: Cargo ship. MMSI: 431001371.

Date/timePositionNaut miles runAvg speedWind from/ knotsBaromVisibWave heightAir tempDewpointWater temp
2015-Mar-30 21:09N 35°57' E 140°44'4 5.9
2015-Mar-30 20:31N 35°56' E 140°40'0 0.0
2015-Mar-30 02:12N 35°56' E 140°40'0 0.0
2015-Mar-30 01:06N 35°56' E 140°40'0 0.0
2015-Mar-30 00:33N 35°56' E 140°40'0 0.0
2015-Mar-29 23:22N 35°56' E 140°40'3 3.5
2015-Mar-29 22:33N 35°53' E 140°41'0 0.0
2015-Mar-29 21:30N 35°53' E 140°41'0 0.0
2015-Mar-29 20:29N 35°53' E 140°41'0 0.0
2015-Mar-29 19:26N 35°53' E 140°41'0 0.1
2015-Mar-29 18:29N 35°53' E 140°41'0 0.1
2015-Mar-29 17:32N 35°53' E 140°41'0 0.0
2015-Mar-29 16:29N 35°53' E 140°41'0 0.0
2015-Mar-29 15:29N 35°53' E 140°41'0 0.0
2015-Mar-29 14:23N 35°53' E 140°41'0 0.0
2015-Mar-29 13:29N 35°53' E 140°41'0 0.0
2015-Mar-29 12:17N 35°53' E 140°41'0 0.1
2015-Mar-29 11:29N 35°53' E 140°41'0 0.0
2015-Mar-29 08:29N 35°53' E 140°41'0 0.0
2015-Mar-29 00:24N 35°53' E 140°41'0 0.0
2015-Mar-28 22:30N 35°53' E 140°41'0 0.0
2015-Mar-28 20:30N 35°53' E 140°41'0 0.0
2015-Mar-28 13:18N 35°53' E 140°41'5 5.2
2015-Mar-28 12:17N 35°58' E 140°43'2111.8
2015-Mar-28 10:33N 35°39' E 140°53'1313.1
2015-Mar-28 09:32N 35°29' E 140°43'1613.3
2015-Mar-28 08:22N 35°16' E 140°31'1414.2
2015-Mar-28 07:24N 35°05' E 140°21'1314.6
2015-Mar-28 06:29N 34°58' E 140°08'1712.5
2015-Mar-28 05:06N 34°52' E 139°48'712.5
2015-Mar-28 04:33N 34°58' E 139°43'1212.1
2015-Mar-28 03:33N 35°10' E 139°46'1211.9
2015-Mar-28 02:33N 35°22' E 139°42'6 6.1
2015-Mar-28 01:31N 35°28' E 139°40'0 0.0
2015-Mar-28 00:25N 35°28' E 139°40'0 0.0
2015-Mar-27 23:31N 35°28' E 139°40'0 0.1
2015-Mar-27 22:33N 35°28' E 139°40'2 1.9
2015-Mar-27 21:31N 35°27' E 139°42'0 0.0
2015-Mar-27 20:31N 35°27' E 139°42'0 0.1
2015-Mar-27 19:31N 35°27' E 139°42'0 0.0
2015-Mar-27 18:31N 35°27' E 139°42'0 0.1
2015-Mar-27 17:31N 35°27' E 139°42'0 0.0
2015-Mar-27 16:31N 35°27' E 139°42'0 0.0
2015-Mar-27 15:31N 35°27' E 139°42'0 0.0
2015-Mar-27 14:31N 35°27' E 139°42'0 0.0
2015-Mar-27 13:31N 35°27' E 139°42'0 0.0
2015-Mar-27 12:31N 35°27' E 139°42'0 0.0
2015-Mar-27 11:28N 35°27' E 139°42'0 0.0
2015-Mar-27 10:31N 35°27' E 139°42'0 0.0
2015-Mar-27 09:31N 35°27' E 139°42'5 5.2
2015-Mar-27 08:33N 35°29' E 139°48'9 8.7
2015-Mar-27 07:34N 35°38' E 139°48'0 0.0
2015-Mar-27 06:29N 35°38' E 139°48'0 0.0
2015-Mar-27 05:29N 35°38' E 139°48'0 0.0
2015-Mar-27 04:32N 35°38' E 139°48'5 4.7
2015-Mar-27 03:33N 35°34' E 139°51'1110.9
2015-Mar-27 02:34N 35°27' E 139°42'3 3.0
2015-Mar-27 01:33N 35°29' E 139°39'0 0.0
2015-Mar-27 00:33N 35°29' E 139°39'0 0.0
2015-Mar-26 23:33N 35°29' E 139°39'3 3.4
2015-Mar-26 22:33N 35°26' E 139°42'0 0.2
2015-Mar-26 21:33N 35°26' E 139°43'4 4.0
2015-Mar-26 20:33N 35°22' E 139°43'1111.0
2015-Mar-26 19:33N 35°12' E 139°47'1110.9
2015-Mar-26 18:33N 35°02' E 139°40'249 9.8
2015-Mar-25 17:17N 34°06' E 134°46'  
Track history (hours):
 
Tides and Currents Weather Stations Pressure Air Temp Water Temp Dewpoint Dewpoint Depression Visibility Wind Speed Wind Dir Waves Ship Positions

Sumifukumaru No.5

Last reported at 2015-Mar-30 21:09 UTC. Time now 2015-Mar-31 03:21 UTC.
Position N 35°57' E 140°44'.

Length 75 m; draft 4.4 m.

Type: Cargo ship. MMSI: 431001371.

Date/timePositionNaut miles runAvg speedWind from/ knotsBaromVisibWave heightAir tempDewpointWater temp
2015-Mar-30 21:09N 35°57' E 140°44'4 5.9
2015-Mar-30 20:31N 35°56' E 140°40'0 0.0
2015-Mar-30 02:12N 35°56' E 140°40'0 0.0
2015-Mar-30 01:06N 35°56' E 140°40'0 0.0
2015-Mar-30 00:33N 35°56' E 140°40'0 0.0
2015-Mar-29 23:22N 35°56' E 140°40'3 3.5
2015-Mar-29 22:33N 35°53' E 140°41'0 0.0
2015-Mar-29 21:30N 35°53' E 140°41'0 0.0
2015-Mar-29 20:29N 35°53' E 140°41'0 0.0
2015-Mar-29 19:26N 35°53' E 140°41'0 0.1
2015-Mar-29 18:29N 35°53' E 140°41'0 0.1
2015-Mar-29 17:32N 35°53' E 140°41'0 0.0
2015-Mar-29 16:29N 35°53' E 140°41'0 0.0
2015-Mar-29 15:29N 35°53' E 140°41'0 0.0
2015-Mar-29 14:23N 35°53' E 140°41'0 0.0
2015-Mar-29 13:29N 35°53' E 140°41'0 0.0
2015-Mar-29 12:17N 35°53' E 140°41'0 0.1
2015-Mar-29 11:29N 35°53' E 140°41'0 0.0
2015-Mar-29 08:29N 35°53' E 140°41'0 0.0
2015-Mar-29 00:24N 35°53' E 140°41'0 0.0
2015-Mar-28 22:30N 35°53' E 140°41'0 0.0
2015-Mar-28 20:30N 35°53' E 140°41'0 0.0
2015-Mar-28 13:18N 35°53' E 140°41'5 5.2
2015-Mar-28 12:17N 35°58' E 140°43'2111.8
2015-Mar-28 10:33N 35°39' E 140°53'1313.1
2015-Mar-28 09:32N 35°29' E 140°43'1613.3
2015-Mar-28 08:22N 35°16' E 140°31'1414.2
2015-Mar-28 07:24N 35°05' E 140°21'1314.6
2015-Mar-28 06:29N 34°58' E 140°08'1712.5
2015-Mar-28 05:06N 34°52' E 139°48'712.5
2015-Mar-28 04:33N 34°58' E 139°43'1212.1
2015-Mar-28 03:33N 35°10' E 139°46'1211.9
2015-Mar-28 02:33N 35°22' E 139°42'6 6.1
2015-Mar-28 01:31N 35°28' E 139°40'0 0.0
2015-Mar-28 00:25N 35°28' E 139°40'0 0.0
2015-Mar-27 23:31N 35°28' E 139°40'0 0.1
2015-Mar-27 22:33N 35°28' E 139°40'2 1.9
2015-Mar-27 21:31N 35°27' E 139°42'0 0.0
2015-Mar-27 20:31N 35°27' E 139°42'0 0.1
2015-Mar-27 19:31N 35°27' E 139°42'0 0.0
2015-Mar-27 18:31N 35°27' E 139°42'0 0.1
2015-Mar-27 17:31N 35°27' E 139°42'0 0.0
2015-Mar-27 16:31N 35°27' E 139°42'0 0.0
2015-Mar-27 15:31N 35°27' E 139°42'0 0.0
2015-Mar-27 14:31N 35°27' E 139°42'0 0.0
2015-Mar-27 13:31N 35°27' E 139°42'0 0.0
2015-Mar-27 12:31N 35°27' E 139°42'0 0.0
2015-Mar-27 11:28N 35°27' E 139°42'0 0.0
2015-Mar-27 10:31N 35°27' E 139°42'0 0.0
2015-Mar-27 09:31N 35°27' E 139°42'5 5.2
2015-Mar-27 08:33N 35°29' E 139°48'9 8.7
2015-Mar-27 07:34N 35°38' E 139°48'0 0.0
2015-Mar-27 06:29N 35°38' E 139°48'0 0.0
2015-Mar-27 05:29N 35°38' E 139°48'0 0.0
2015-Mar-27 04:32N 35°38' E 139°48'5 4.7
2015-Mar-27 03:33N 35°34' E 139°51'1110.9
2015-Mar-27 02:34N 35°27' E 139°42'3 3.0
2015-Mar-27 01:33N 35°29' E 139°39'0 0.0
2015-Mar-27 00:33N 35°29' E 139°39'0 0.0
2015-Mar-26 23:33N 35°29' E 139°39'3 3.4
2015-Mar-26 22:33N 35°26' E 139°42'0 0.2
2015-Mar-26 21:33N 35°26' E 139°43'4 4.0
2015-Mar-26 20:33N 35°22' E 139°43'1111.0
2015-Mar-26 19:33N 35°12' E 139°47'1110.9
2015-Mar-26 18:33N 35°02' E 139°40'249 9.8
2015-Mar-25 17:17N 34°06' E 134°46'  

Dump ship's entire track history